Time;durP1;ratioP1;P1;durP2;ratioP2;P2;SDS_P1;SDS_P2;PMS_P1;PMS_P2;Temp;Humidity;BMP_temperature;BMP_pressure;BME280_temperature;BME280_humidity;BME280_pressure;Samples;Min_cycle;Max_cycle;Signal;HPM_P1;HPM_P2
2021/09/24 00:00:24;;;;;;;;;;;22.60;85.30;;;;;;4896454;29;19925;-75
2021/09/24 00:02:50;;;;;;;;;;;22.80;83.50;;;;;;4902214;29;19912;-78
2021/09/24 00:05:17;;;;;;;;;;;22.90;83.60;;;;;;4901334;29;19959;-78
2021/09/24 00:07:44;;;;;;;;;;;22.80;84.50;;;;;;4910959;29;19911;-75
2021/09/24 00:10:11;;;;;;;;;;;22.90;82.80;;;;;;4896630;29;19920;-81
2021/09/24 00:12:38;;;;;;;;;;;23.00;82.00;;;;;;4897274;29;19919;-72
2021/09/24 00:15:07;;;;;;;;;;;23.20;82.00;;;;;;4906466;29;19953;-81
2021/09/24 00:17:33;;;;;;;;;;;23.50;81.30;;;;;;4901346;29;19918;-78
2021/09/24 00:20:00;;;;;;;;;;;23.50;78.00;;;;;;4898472;29;19962;-78
2021/09/24 00:22:26;;;;;;;;;;;23.60;77.60;;;;;;4898263;29;19915;-83
2021/09/24 00:24:53;;;;;;;;;;;23.50;77.00;;;;;;4900912;29;19985;-77
2021/09/24 00:27:20;;;;;;;;;;;23.70;76.10;;;;;;4894170;29;19911;-77
2021/09/24 00:29:47;;;;;;;;;;;23.80;75.60;;;;;;4897429;29;19975;-71
2021/09/24 00:32:13;;;;;;;;;;;23.90;75.00;;;;;;4898177;29;19951;-77
2021/09/24 00:34:40;;;;;;;;;;;23.90;74.80;;;;;;4897436;29;19911;-71
2021/09/24 00:37:07;;;;;;;;;;;23.90;74.60;;;;;;4896937;29;19917;-68
2021/09/24 00:39:33;;;;;;;;;;;23.90;74.40;;;;;;4902860;29;20365;-72
2021/09/24 00:42:00;;;;;;;;;;;23.90;74.70;;;;;;4906524;29;19919;-68
2021/09/24 00:44:40;;;;;;;;;;;24.10;74.90;;;;;;4899817;29;19967;-69
2021/09/24 00:47:06;;;;;;;;;;;24.10;74.10;;;;;;4900574;29;19926;-68
2021/09/24 00:49:33;;;;;;;;;;;24.50;73.90;;;;;;4899775;29;20045;-71
2021/09/24 00:52:00;;;;;;;;;;;24.60;72.80;;;;;;4900166;29;19966;-67
2021/09/24 00:54:27;;;;;;;;;;;24.60;73.60;;;;;;4887269;29;19963;-75
2021/09/24 00:56:54;;;;;;;;;;;24.70;74.80;;;;;;4907631;29;19911;-66
2021/09/24 00:59:20;;;;;;;;;;;24.70;74.60;;;;;;4907181;29;20401;-72
2021/09/24 01:01:47;;;;;;;;;;;25.00;75.40;;;;;;4901920;29;19983;-68
2021/09/24 01:04:14;;;;;;;;;;;25.30;73.00;;;;;;4901020;29;19911;-70
2021/09/24 01:06:41;;;;;;;;;;;25.20;72.30;;;;;;4904251;29;20502;-78
2021/09/24 01:09:08;;;;;;;;;;;25.20;72.00;;;;;;4894899;29;19912;-70
2021/09/24 01:11:38;;;;;;;;;;;25.30;71.90;;;;;;4895297;29;19924;-66
2021/09/24 01:14:06;;;;;;;143.45;46.20;;;25.30;71.70;;;;;;4911154;29;20417;-70
2021/09/24 01:16:32;;;;;;;;;;;25.40;71.70;;;;;;4907997;29;20276;-69
2021/09/24 01:18:59;;;;;;;;;;;25.50;70.60;;;;;;4919405;29;20287;-68
2021/09/24 01:21:26;;;;;;;;;;;25.60;70.60;;;;;;4897807;29;19916;-69
2021/09/24 01:23:52;;;;;;;;;;;25.60;70.80;;;;;;4891635;29;19926;-66
2021/09/24 01:26:19;;;;;;;;;;;25.60;70.00;;;;;;4896206;29;20367;-75
2021/09/24 01:28:46;;;;;;;;;;;25.60;69.80;;;;;;4894651;29;19911;-72
2021/09/24 01:31:13;;;;;;;;;;;25.90;70.10;;;;;;4896264;29;20013;-67
2021/09/24 01:33:46;;;;;;;;;;;26.10;69.30;;;;;;4895517;29;19922;-68
2021/09/24 01:36:13;;;;;;;;;;;26.10;69.00;;;;;;4896801;29;19919;-68
2021/09/24 01:38:40;;;;;;;;;;;26.50;68.90;;;;;;4896222;29;19918;-66
2021/09/24 01:41:07;;;;;;;;;;;26.50;69.40;;;;;;4894946;29;19926;-67
2021/09/24 01:43:34;;;;;;;;;;;26.70;68.30;;;;;;4896562;29;20359;-69
2021/09/24 01:46:01;;;;;;;;;;;26.70;67.80;;;;;;4896298;29;19915;-71
2021/09/24 01:48:28;;;;;;;;;;;26.70;65.60;;;;;;4897763;29;19919;-71
2021/09/24 01:50:54;;;;;;;;;;;26.70;65.50;;;;;;4899707;29;19934;-70
2021/09/24 01:53:21;;;;;;;;;;;26.70;65.10;;;;;;4898965;29;19918;-78
2021/09/24 01:55:48;;;;;;;;;;;26.60;66.30;;;;;;4898920;29;19922;-67
2021/09/24 01:58:16;;;;;;;7.40;7.00;;;26.50;65.10;;;;;;4898804;29;20442;-70
2021/09/24 02:00:42;;;;;;;;;;;26.70;65.80;;;;;;4899677;29;20220;-76
2021/09/24 02:03:09;;;;;;;;;;;26.60;66.30;;;;;;4899280;29;20243;-77
2021/09/24 02:05:36;;;;;;;;;;;26.70;65.80;;;;;;4895496;29;20319;-73
2021/09/24 02:08:02;;;;;;;;;;;26.50;66.40;;;;;;4898059;29;20869;-71
2021/09/24 02:10:29;;;;;;;;;;;26.50;65.10;;;;;;4898423;29;19922;-68
2021/09/24 02:12:57;;;;;;;;;;;27.10;65.60;;;;;;4899198;29;19922;-71
2021/09/24 02:15:25;;;;;;;;;;;26.90;62.80;;;;;;4899813;29;20072;-66
2021/09/24 02:17:51;;;;;;;;;;;26.90;61.10;;;;;;4899283;29;19911;-71
2021/09/24 02:20:18;;;;;;;;;;;26.80;61.60;;;;;;4899525;29;20382;-66
2021/09/24 02:22:45;;;;;;;;;;;27.00;61.60;;;;;;4899182;29;20282;-71
2021/09/24 02:25:11;;;;;;;;;;;27.20;60.90;;;;;;4896591;29;19971;-71
2021/09/24 02:27:39;;;;;;;2.40;2.30;;;27.30;61.20;;;;;;4893614;29;20434;-73
2021/09/24 02:30:06;;;;;;;;;;;27.50;60.70;;;;;;4898656;29;20186;-73
2021/09/24 02:32:32;;;;;;;;;;;27.80;61.30;;;;;;4899322;29;19919;-74
2021/09/24 02:34:59;;;;;;;;;;;27.50;60.90;;;;;;4898964;29;19964;-68
2021/09/24 02:37:26;;;;;;;;;;;27.80;61.30;;;;;;4898857;29;19954;-74
2021/09/24 02:39:53;;;;;;;;;;;27.80;60.70;;;;;;4898372;29;19974;-72
2021/09/24 02:42:19;;;;;;;;;;;27.90;61.40;;;;;;4898299;29;20335;-70
2021/09/24 02:44:46;;;;;;;;;;;28.10;60.30;;;;;;4898796;29;20005;-73
2021/09/24 02:47:14;;;;;;;;;;;28.30;60.60;;;;;;4891690;29;19946;-68
2021/09/24 02:49:42;;;;;;;;;;;28.30;59.50;;;;;;4897087;29;19908;-78
2021/09/24 02:52:08;;;;;;;;;;;28.10;59.80;;;;;;4898846;29;19911;-75
2021/09/24 02:54:35;;;;;;;;;;;28.30;60.10;;;;;;4897310;29;20267;-73
2021/09/24 02:57:02;;;;;;;;;;;27.90;59.20;;;;;;4898240;29;19966;-71
2021/09/24 02:59:28;;;;;;;;;;;28.10;60.00;;;;;;4897767;29;19923;-67
2021/09/24 03:01:58;;;;;;;17.38;16.17;;;28.60;60.00;;;;;;4911246;29;20806;-73
2021/09/24 03:04:26;;;;;;;13.37;12.27;;;28.30;59.40;;;;;;4897220;29;20263;-73
2021/09/24 03:06:53;;;;;;;11.40;10.50;;;28.80;58.10;;;;;;4897086;29;20189;-68
2021/09/24 03:09:21;;;;;;;11.43;10.47;;;28.30;58.80;;;;;;4897527;29;20181;-70
2021/09/24 03:11:48;;;;;;;7.13;6.30;;;28.10;59.00;;;;;;4896209;29;20328;-68
2021/09/24 03:14:16;;;;;;;6.47;5.40;;;28.40;58.70;;;;;;4897655;29;20188;-71
2021/09/24 03:16:43;;;;;;;13.90;12.73;;;28.80;58.40;;;;;;4898030;29;20181;-75
2021/09/24 03:19:13;;;;;;;6.40;5.60;;;28.30;58.40;;;;;;4897428;29;20209;-70
2021/09/24 03:21:41;;;;;;;32.20;28.87;;;28.50;58.90;;;;;;4897794;29;20193;-71
2021/09/24 03:24:08;;;;;;;5.03;3.23;;;28.40;58.20;;;;;;4896253;29;20706;-76
2021/09/24 03:26:36;;;;;;;7.37;4.07;;;28.50;58.40;;;;;;4897689;29;20189;-72
2021/09/24 03:29:04;;;;;;;36.67;14.57;;;28.90;58.60;;;;;;4897688;29;20287;-71
2021/09/24 03:31:32;;;;;;;42.17;27.07;;;28.80;58.70;;;;;;4897485;29;20278;-74
2021/09/24 03:33:59;;;;;;;13.70;12.60;;;28.50;58.50;;;;;;4897227;29;20186;-71
2021/09/24 03:36:26;;;;;;;33.87;28.93;;;28.80;58.30;;;;;;4898027;29;20193;-75
2021/09/24 03:38:53;;;;;;;13.17;12.10;;;29.10;57.30;;;;;;4896845;29;20190;-74
2021/09/24 03:41:21;;;;;;;13.33;9.70;;;29.00;57.50;;;;;;4896443;29;20277;-73
2021/09/24 03:43:48;;;;;;;13.60;12.27;;;29.00;57.80;;;;;;4896858;29;20186;-69
2021/09/24 03:46:15;;;;;;;24.07;16.67;;;29.10;57.40;;;;;;4897398;29;20596;-68
2021/09/24 03:48:43;;;;;;;6.40;5.53;;;29.40;57.10;;;;;;4896964;29;20217;-72
2021/09/24 03:51:10;;;;;;;22.97;21.37;;;29.20;57.20;;;;;;4902311;29;20190;-76
2021/09/24 03:53:38;;;;;;;14.10;12.73;;;29.50;57.10;;;;;;4896879;29;20199;-69
2021/09/24 03:56:05;;;;;;;8.00;7.27;;;28.90;57.00;;;;;;4896783;29;20256;-71
2021/09/24 03:58:33;;;;;;;8.70;7.90;;;29.30;58.00;;;;;;4900724;29;20605;-71
2021/09/24 04:01:00;;;;;;;10.83;7.43;;;29.40;57.00;;;;;;4902789;29;20272;-70
2021/09/24 04:03:28;;;;;;;6.50;1.00;;;29.00;56.10;;;;;;4897133;29;20255;-70
2021/09/24 04:05:56;;;;;;;2.50;0.80;;;29.00;57.10;;;;;;4896789;29;20185;-65
2021/09/24 04:08:23;;;;;;;1.53;1.10;;;29.40;56.20;;;;;;4896688;29;20189;-70
2021/09/24 04:10:53;;;;;;;1.07;0.97;;;29.30;55.50;;;;;;4896758;29;20233;-70
2021/09/24 04:13:23;;;;;;;3.00;1.10;;;28.70;56.50;;;;;;4895732;29;20212;-71
2021/09/24 04:15:50;;;;;;;2.03;0.90;;;28.00;57.60;;;;;;4895783;29;20566;-68
2021/09/24 04:18:17;;;;;;;1.50;0.80;;;27.80;57.50;;;;;;4897971;29;20280;-82
2021/09/24 04:20:46;;;;;;;3.40;0.90;;;27.70;57.70;;;;;;4897696;29;20704;-75
2021/09/24 04:23:15;;;;;;;3.80;1.03;;;27.30;58.30;;;;;;4894908;29;20189;-79
2021/09/24 04:25:42;;;;;;;1.00;0.90;;;27.00;58.40;;;;;;4894912;29;20592;-84
2021/09/24 04:28:10;;;;;;;1.50;0.80;;;26.90;58.40;;;;;;4885171;29;20225;-81
2021/09/24 04:30:37;;;;;;;1.63;1.10;;;26.80;59.00;;;;;;4897585;29;20193;-76
2021/09/24 04:33:04;;;;;;;2.13;1.10;;;26.70;59.20;;;;;;4912097;29;20275;-75
2021/09/24 04:35:32;;;;;;;5.90;1.20;;;26.50;59.20;;;;;;4902462;29;20554;-71
2021/09/24 04:37:59;;;;;;;1.20;1.00;;;26.60;59.40;;;;;;4903387;29;20201;-78
2021/09/24 04:40:28;;;;;;;4.47;0.73;;;27.00;58.60;;;;;;4892545;29;20260;-77
2021/09/24 04:42:55;;;;;;;3.17;0.90;;;27.20;58.60;;;;;;4880884;29;20178;-74
2021/09/24 04:45:23;;;;;;;4.73;1.10;;;26.80;58.80;;;;;;4905561;29;20197;-77
2021/09/24 04:47:50;;;;;;;1.67;1.00;;;26.50;59.00;;;;;;4897069;29;20241;-74
2021/09/24 04:50:17;;;;;;;1.50;1.03;;;26.20;59.50;;;;;;4890243;29;20667;-73
2021/09/24 04:52:45;;;;;;;1.43;0.80;;;26.50;59.00;;;;;;4902101;29;20644;-72
2021/09/24 04:55:12;;;;;;;6.27;1.00;;;27.60;57.70;;;;;;4905252;29;20644;-78
2021/09/24 04:57:40;;;;;;;1.00;0.73;;;29.00;57.10;;;;;;4896992;29;20201;-73
2021/09/24 05:00:10;;;;;;;2.00;1.03;;;29.60;55.70;;;;;;4896174;29;20684;-78
2021/09/24 05:02:41;;;;;;;1.50;1.00;;;30.00;54.90;;;;;;4897170;29;20748;-77
2021/09/24 05:05:09;;;;;;;3.13;0.90;;;30.10;53.40;;;;;;4909735;29;20189;-78
2021/09/24 05:07:37;;;;;;;2.00;0.90;;;30.00;53.30;;;;;;4903322;29;20189;-82
2021/09/24 05:10:06;;;;;;;1.42;0.80;;;30.20;53.30;;;;;;4922586;29;20193;-70
2021/09/24 05:12:34;;;;;;;1.50;0.73;;;30.20;52.80;;;;;;4895235;29;20185;-78
2021/09/24 05:15:01;;;;;;;3.87;1.10;;;30.40;52.70;;;;;;4895335;29;20199;-84
2021/09/24 05:17:29;;;;;;;1.42;0.90;;;31.00;52.60;;;;;;4896404;29;20190;-75
2021/09/24 05:19:57;;;;;;;1.13;0.77;;;30.90;51.70;;;;;;4900378;29;20240;-73
2021/09/24 05:22:24;;;;;;;4.77;0.97;;;30.70;51.70;;;;;;4899828;29;20197;-82
2021/09/24 05:24:52;;;;;;;2.30;0.93;;;30.50;52.20;;;;;;4907343;29;20624;-84
2021/09/24 05:27:19;;;;;;;2.07;0.80;;;30.70;51.60;;;;;;4901868;29;20189;-76
2021/09/24 05:29:47;;;;;;;1.52;0.95;;;30.50;51.40;;;;;;4898971;29;20213;-71
2021/09/24 05:32:14;;;;;;;3.60;0.87;;;30.70;51.70;;;;;;4901048;29;20204;-80
2021/09/24 05:34:42;;;;;;;0.60;0.60;;;29.80;52.50;;;;;;4902704;29;20518;-73
2021/09/24 05:37:10;;;;;;;1.87;0.77;;;30.30;52.60;;;;;;4899115;29;20185;-76
2021/09/24 05:39:37;;;;;;;1.40;0.90;;;29.70;52.70;;;;;;4899587;29;20308;-75
2021/09/24 05:42:05;;;;;;;2.90;1.00;;;29.60;53.30;;;;;;4902084;29;20181;-75
2021/09/24 05:44:33;;;;;;;3.67;0.90;;;30.10;53.40;;;;;;4900187;29;20189;-83
2021/09/24 05:47:00;;;;;;;1.00;0.90;;;30.20;52.60;;;;;;4900911;29;20184;-78
2021/09/24 05:49:30;;;;;;;2.30;0.73;;;30.30;52.70;;;;;;4908656;29;20228;-78
2021/09/24 05:51:58;;;;;;;1.87;0.80;;;30.80;52.00;;;;;;4908219;29;20199;-75
2021/09/24 05:54:26;;;;;;;1.13;0.90;;;30.60;51.80;;;;;;4897500;29;20193;-77
2021/09/24 05:56:54;;;;;;;2.77;0.97;;;30.10;52.00;;;;;;4902416;29;20196;-82
2021/09/24 05:59:22;;;;;;;5.47;1.10;;;30.00;52.50;;;;;;4916892;29;20561;-74
2021/09/24 06:01:50;;;;;;;4.47;1.00;;;30.10;51.90;;;;;;4899042;29;20213;-73
2021/09/24 06:04:19;;;;;;;2.60;0.80;;;29.80;51.50;;;;;;4905647;29;20276;-81
2021/09/24 06:06:47;;;;;;;1.17;1.00;;;29.40;51.90;;;;;;4900109;29;20187;-82
2021/09/24 06:09:15;;;;;;;3.67;0.87;;;29.30;52.20;;;;;;4908904;29;20215;-78
2021/09/24 06:11:43;;;;;;;1.47;0.90;;;29.20;52.40;;;;;;4899323;29;20584;-77
2021/09/24 06:14:10;;;;;;;2.87;1.00;;;29.40;52.30;;;;;;4899688;29;20195;-81
2021/09/24 06:16:38;;;;;;;1.57;1.00;;;29.90;52.20;;;;;;4900393;29;20197;-75
2021/09/24 06:19:06;;;;;;;1.87;1.00;;;29.80;50.60;;;;;;4901762;29;20555;-82
2021/09/24 06:21:34;;;;;;;3.63;1.17;;;29.10;51.40;;;;;;4899687;29;20280;-78
2021/09/24 06:24:01;;;;;;;1.53;1.00;;;29.30;51.30;;;;;;4898513;29;20186;-83
2021/09/24 06:26:29;;;;;;;4.43;1.40;;;29.10;51.50;;;;;;4894428;29;20193;-76
2021/09/24 06:28:56;;;;;;;2.10;1.20;;;29.30;51.50;;;;;;4916612;29;20232;-80
2021/09/24 06:31:23;;;;;;;1.83;1.03;;;29.60;51.30;;;;;;4903546;29;20217;-77
2021/09/24 06:33:51;;;;;;;1.60;0.90;;;29.40;51.60;;;;;;4899628;29;20193;-80
2021/09/24 06:36:19;;;;;;;2.53;0.70;;;29.30;52.00;;;;;;4912966;29;20245;-80
2021/09/24 06:38:47;;;;;;;1.47;0.90;;;29.40;52.00;;;;;;4900641;29;20192;-73
2021/09/24 06:41:15;;;;;;;2.00;0.70;;;29.60;52.10;;;;;;4899470;29;20696;-79
2021/09/24 06:43:43;;;;;;;4.53;1.27;;;29.60;52.10;;;;;;4895268;29;20186;-75
2021/09/24 06:46:10;;;;;;;2.17;0.73;;;29.70;52.30;;;;;;4880333;29;20653;-78
2021/09/24 06:48:37;;;;;;;2.23;0.80;;;29.10;52.10;;;;;;4898926;29;20178;-79
2021/09/24 06:51:05;;;;;;;1.40;0.70;;;28.70;52.50;;;;;;4906777;29;20209;-77
2021/09/24 06:53:33;;;;;;;3.67;0.87;;;28.50;52.00;;;;;;4898156;29;20185;-83
2021/09/24 06:56:01;;;;;;;3.30;0.80;;;28.50;52.50;;;;;;4904090;29;20556;-79
2021/09/24 06:58:28;;;;;;;3.53;1.03;;;28.50;52.00;;;;;;4900070;29;20181;-78
2021/09/24 07:00:56;;;;;;;2.60;1.00;;;28.60;51.40;;;;;;4899191;29;20220;-74
2021/09/24 07:03:23;;;;;;;2.17;1.10;;;28.50;51.50;;;;;;4899102;29;20664;-79
2021/09/24 07:05:50;;;;;;;2.20;1.20;;;28.60;52.10;;;;;;4899605;29;20178;-83
2021/09/24 07:08:18;;;;;;;4.73;1.00;;;28.00;51.60;;;;;;4900672;29;20249;-68
2021/09/24 07:10:45;;;;;;;1.23;0.70;;;27.40;52.30;;;;;;4898271;29;20224;-67
2021/09/24 07:13:13;;;;;;;1.50;0.97;;;27.30;52.40;;;;;;4913154;29;20252;-69
2021/09/24 07:15:43;;;;;;;1.53;1.10;;;27.40;52.50;;;;;;4899076;29;20181;-67
2021/09/24 07:18:11;;;;;;;1.47;1.00;;;27.30;52.60;;;;;;4898269;29;20517;-68
2021/09/24 07:20:39;;;;;;;2.37;0.70;;;27.20;53.10;;;;;;4901879;29;20225;-72
2021/09/24 07:23:07;;;;;;;1.40;0.90;;;26.70;53.10;;;;;;4915479;29;20186;-69
2021/09/24 07:25:34;;;;;;;4.30;1.07;;;26.30;53.70;;;;;;4896369;29;20185;-74
2021/09/24 07:28:02;;;;;;;2.47;1.27;;;26.00;54.30;;;;;;4905728;29;20272;-71
2021/09/24 07:30:29;;;;;;;1.60;0.80;;;25.80;54.50;;;;;;4898270;29;20185;-75
2021/09/24 07:32:56;;;;;;;4.00;1.20;;;25.50;54.00;;;;;;4902633;29;20179;-68
2021/09/24 07:35:24;;;;;;;2.77;1.03;;;25.30;54.20;;;;;;4899176;29;20235;-69
2021/09/24 07:37:51;;;;;;;0.93;0.80;;;25.20;54.20;;;;;;4902353;29;20298;-75
2021/09/24 07:40:18;;;;;;;3.87;1.10;;;25.00;54.70;;;;;;4897811;29;20312;-67
2021/09/24 07:42:46;;;;;;;3.77;1.20;;;24.90;54.80;;;;;;4888222;29;20189;-69
2021/09/24 07:45:13;;;;;;;1.30;1.10;;;24.80;54.40;;;;;;4896871;29;20657;-69
2021/09/24 07:47:41;;;;;;;3.90;0.97;;;24.80;54.10;;;;;;4896231;29;20197;-68
2021/09/24 07:50:09;;;;;;;7.40;1.30;;;24.70;54.30;;;;;;4897292;29;20209;-71
2021/09/24 07:52:36;;;;;;;3.00;1.40;;;24.60;54.50;;;;;;4894582;29;20193;-71
2021/09/24 07:55:04;;;;;;;5.40;1.50;;;24.50;54.60;;;;;;4902165;29;20547;-67
2021/09/24 07:57:32;;;;;;;4.30;1.50;;;24.40;55.00;;;;;;4907217;29;20197;-72
2021/09/24 07:59:59;;;;;;;2.83;1.50;;;24.30;55.30;;;;;;4898588;29;20253;-76
2021/09/24 08:02:27;;;;;;;1.90;1.50;;;24.20;55.20;;;;;;4897733;29;20181;-70
2021/09/24 08:04:54;;;;;;;3.77;1.40;;;24.10;55.40;;;;;;4897426;29;20252;-68
2021/09/24 08:07:21;;;;;;;4.07;2.03;;;24.00;55.30;;;;;;4896611;29;20204;-68
2021/09/24 08:09:49;;;;;;;2.90;1.60;;;24.00;55.40;;;;;;4897253;29;20176;-65
2021/09/24 08:12:16;;;;;;;2.47;1.60;;;24.00;54.60;;;;;;4895883;29;20292;-66
2021/09/24 08:14:43;;;;;;;1.70;1.30;;;23.90;54.40;;;;;;4895772;29;20189;-73
2021/09/24 08:17:11;;;;;;;1.90;1.43;;;23.90;54.50;;;;;;4896586;29;20706;-67
2021/09/24 08:19:39;;;;;;;1.50;1.40;;;23.90;53.90;;;;;;4889111;29;20225;-71
2021/09/24 08:22:06;;;;;;;4.17;1.50;;;23.80;54.20;;;;;;4889344;29;20241;-68
2021/09/24 08:24:34;;;;;;;3.00;1.53;;;23.80;54.30;;;;;;4895062;29;20699;-67
2021/09/24 08:27:01;;;;;;;5.10;1.80;;;23.70;54.60;;;;;;4895719;29;20214;-66
2021/09/24 08:29:28;;;;;;;2.40;1.70;;;23.70;54.50;;;;;;4896120;29;20185;-67
2021/09/24 08:31:56;;;;;;;3.53;1.70;;;23.60;54.70;;;;;;4894146;29;20185;-67
2021/09/24 08:34:24;;;;;;;6.97;1.80;;;23.50;54.70;;;;;;4895500;29;20193;-67
2021/09/24 08:36:51;;;;;;;5.00;1.80;;;23.40;54.90;;;;;;4896563;29;20178;-67
2021/09/24 08:39:19;;;;;;;4.60;1.60;;;23.40;55.00;;;;;;4896904;29;20660;-67
2021/09/24 08:41:46;;;;;;;4.50;1.90;;;23.40;54.60;;;;;;4896537;29;20181;-68
2021/09/24 08:44:13;;;;;;;2.13;1.63;;;23.40;55.00;;;;;;4894997;29;20221;-67
2021/09/24 08:46:41;;;;;;;4.30;1.97;;;23.30;55.10;;;;;;4894534;29;20197;-66
2021/09/24 08:49:09;;;;;;;2.27;1.90;;;23.30;55.30;;;;;;4896951;29;20232;-66
2021/09/24 08:51:36;;;;;;;2.13;1.70;;;23.20;55.60;;;;;;4896925;29;20213;-66
2021/09/24 08:54:05;;;;;;;2.07;1.60;;;23.10;55.60;;;;;;4894952;29;20208;-69
2021/09/24 08:56:32;;;;;;;2.27;1.40;;;23.10;55.60;;;;;;4896806;29;20560;-66
2021/09/24 08:58:59;;;;;;;2.73;1.93;;;23.00;55.60;;;;;;4898050;29;20629;-67
2021/09/24 09:01:27;;;;;;;1.73;1.50;;;23.00;55.80;;;;;;4899287;29;20196;-69
2021/09/24 09:03:55;;;;;;;4.23;1.90;;;23.00;56.10;;;;;;4900214;29;20661;-66
2021/09/24 09:06:23;;;;;;;3.73;1.87;;;22.90;55.70;;;;;;4900294;29;20188;-67
2021/09/24 09:08:53;;;;;;;1.67;1.43;;;22.90;55.70;;;;;;4904181;29;20542;-77
2021/09/24 09:11:20;;;;;;;5.40;1.50;;;22.90;55.70;;;;;;4899718;29;20229;-66
2021/09/24 09:13:55;;;;;;;3.03;1.63;;;23.00;55.70;;;;;;4899691;29;20190;-67
2021/09/24 09:16:29;;;;;;;2.30;1.53;;;22.90;56.70;;;;;;4900444;29;20272;-67
2021/09/24 09:19:17;;;;;;;3.97;1.90;;;22.80;55.90;;;;;;4900190;29;20236;-71
2021/09/24 09:21:47;;;;;;;1.60;1.50;;;22.80;56.10;;;;;;4899987;29;20619;-66
2021/09/24 09:24:21;;;;;;;1.93;1.67;;;22.80;56.50;;;;;;4899583;29;20288;-77
2021/09/24 09:26:52;;;;;;;4.97;1.90;;;22.70;56.80;;;;;;4900642;29;20217;-74
2021/09/24 09:29:19;;;;;;;3.93;1.90;;;22.60;56.80;;;;;;4900282;29;20197;-77
2021/09/24 09:32:03;;;;;;;1.77;1.50;;;22.60;57.00;;;;;;4899884;29;20181;-71
2021/09/24 09:34:37;;;;;;;2.37;1.57;;;22.50;57.30;;;;;;4897356;29;20184;-75
2021/09/24 09:37:19;;;;;;;4.47;2.40;;;22.40;57.90;;;;;;4901562;29;20197;-78
2021/09/24 09:40:02;;;;;;;8.70;3.67;;;22.30;58.20;;;;;;4896375;29;20235;-77
2021/09/24 09:42:35;;;;;;;15.30;7.57;;;22.20;59.00;;;;;;4903576;29;20195;-77
2021/09/24 09:45:04;;;;;;;9.43;5.00;;;22.10;59.70;;;;;;4899301;29;20229;-66
2021/09/24 09:47:36;;;;;;;8.17;4.03;;;21.90;59.60;;;;;;4911265;29;20268;-68
2021/09/24 09:50:12;;;;;;;6.90;3.90;;;21.90;60.20;;;;;;4895748;29;20242;-66
2021/09/24 09:52:59;;;;;;;5.77;3.27;;;21.80;60.60;;;;;;4895846;29;20181;-65
2021/09/24 09:55:30;;;;;;;12.10;3.67;;;21.70;61.10;;;;;;4898409;29;20204;-66
2021/09/24 09:58:06;;;;;;;6.23;2.87;;;21.60;61.20;;;;;;4899806;29;20192;-71
2021/09/24 10:00:35;;;;;;;4.33;2.73;;;21.60;61.90;;;;;;4899942;29;20240;-75
2021/09/24 10:03:12;;;;;;;4.63;2.90;;;21.50;61.90;;;;;;4897780;29;20802;-76
2021/09/24 10:05:42;;;;;;;3.67;2.20;;;21.50;61.80;;;;;;4898512;29;20212;-72
2021/09/24 10:08:19;;;;;;;5.63;2.60;;;21.40;62.70;;;;;;4899779;29;20184;-75
2021/09/24 10:11:14;;;;;;;4.43;2.40;;;21.40;62.40;;;;;;4898975;29;20224;-76
2021/09/24 10:13:54;;;;;;;9.10;2.60;;;21.40;62.50;;;;;;4895622;29;20194;-77
2021/09/24 10:16:28;;;;;;;5.63;2.40;;;21.30;62.80;;;;;;4900259;29;20216;-69
2021/09/24 10:18:55;;;;;;;5.17;2.40;;;21.30;63.00;;;;;;4904623;29;20189;-77
2021/09/24 10:21:24;;;;;;;4.33;2.20;;;21.30;63.20;;;;;;4898806;29;20221;-74
2021/09/24 10:23:52;;;;;;;6.33;2.57;;;21.30;63.00;;;;;;4904877;29;20193;-77
2021/09/24 10:26:33;;;;;;;3.50;2.50;;;21.30;63.50;;;;;;4903982;29;20262;-77
2021/09/24 10:29:06;;;;;;;4.33;3.00;;;21.20;63.90;;;;;;4906556;29;20209;-76
2021/09/24 10:31:40;;;;;;;7.20;2.40;;;21.10;64.30;;;;;;4902624;29;20604;-70
2021/09/24 10:34:08;;;;;;;8.37;3.17;;;21.00;64.30;;;;;;4909749;29;20181;-73
2021/09/24 10:36:56;;;;;;;5.33;3.13;;;21.00;64.50;;;;;;4900929;29;20276;-74
2021/09/24 10:39:34;;;;;;;11.17;2.53;;;20.90;64.50;;;;;;4903334;29;20185;-76
2021/09/24 10:42:26;;;;;;;5.33;2.33;;;20.90;64.60;;;;;;4908318;29;20228;-73
2021/09/24 10:45:17;;;;;;;5.73;2.60;;;20.90;64.40;;;;;;4898246;29;20185;-67
2021/09/24 10:47:44;;;;;;;4.03;2.13;;;20.90;64.70;;;;;;4897974;29;20189;-74
2021/09/24 10:50:37;;;;;;;4.10;2.20;;;20.80;64.80;;;;;;4898714;29;20871;-77
2021/09/24 10:53:18;;;;;;;5.20;2.20;;;20.80;65.00;;;;;;4874712;29;20204;-74
2021/09/24 10:55:57;;;;;;;4.10;2.10;;;20.80;65.20;;;;;;4895806;29;20185;-75
2021/09/24 10:58:27;;;;;;;9.53;2.50;;;20.70;65.50;;;;;;4897065;29;20181;-78
2021/09/24 11:01:14;;;;;;;6.23;2.30;;;20.70;65.80;;;;;;4898747;29;20224;-75
2021/09/24 11:04:13;;;;;;;4.33;1.90;;;20.70;65.70;;;;;;4900027;29;20173;-75
2021/09/24 11:06:42;;;;;;;2.97;1.77;;;20.70;65.60;;;;;;4888070;29;20196;-70
2021/09/24 11:09:18;;;;;;;2.47;1.70;;;20.70;65.80;;;;;;4897043;29;20594;-74
2021/09/24 11:11:48;;;;;;;3.77;2.33;;;20.70;66.10;;;;;;4899145;29;20573;-73
2021/09/24 11:14:42;;;;;;;8.93;3.20;;;20.60;66.60;;;;;;4903896;29;20581;-73
2021/09/24 11:17:33;;;;;;;4.93;1.80;;;20.60;67.10;;;;;;4910742;29;20227;-70
2021/09/24 11:20:26;;;;;;;3.43;1.67;;;20.60;67.10;;;;;;4901740;29;20231;-74
2021/09/24 11:22:54;;;;;;;3.77;2.03;;;20.50;67.50;;;;;;4891538;29;20185;-74
2021/09/24 11:25:21;;;;;;;2.17;1.70;;;20.50;67.40;;;;;;4913657;29;20590;-76
2021/09/24 11:27:50;;;;;;;7.20;1.90;;;20.50;67.50;;;;;;4913965;29;20539;-74
2021/09/24 11:30:26;;;;;;;2.97;1.50;;;20.50;67.70;;;;;;4898986;29;20645;-72
2021/09/24 11:32:59;;;;;;;5.00;1.80;;;20.50;67.70;;;;;;4904969;29;20185;-79
2021/09/24 11:35:30;;;;;;;3.03;1.50;;;20.50;67.90;;;;;;4898650;29;20644;-76
2021/09/24 11:38:20;;;;;;;3.60;1.50;;;20.40;67.90;;;;;;4908646;29;20246;-76
2021/09/24 11:40:53;;;;;;;5.93;1.30;;;20.40;68.30;;;;;;4898054;29;20628;-70
2021/09/24 11:43:36;;;;;;;4.50;1.60;;;20.30;68.50;;;;;;4897451;29;20728;-66
2021/09/24 11:46:18;;;;;;;3.93;1.40;;;20.30;68.60;;;;;;4896452;29;20189;-67
2021/09/24 11:48:46;;;;;;;2.40;1.40;;;20.30;68.60;;;;;;4898255;29;20545;-73
2021/09/24 11:51:15;;;;;;;2.10;1.50;;;20.30;68.90;;;;;;4896190;29;20186;-68
2021/09/24 11:53:52;;;;;;;4.73;1.37;;;20.30;68.80;;;;;;4895925;29;20233;-70
2021/09/24 11:56:21;;;;;;;1.63;1.50;;;20.30;69.00;;;;;;4897279;29;20276;-67
2021/09/24 11:59:01;;;;;;;6.53;1.70;;;20.30;69.00;;;;;;4893203;29;20617;-66
2021/09/24 12:01:28;;;;;;;6.50;1.67;;;20.30;69.40;;;;;;4896421;29;20236;-69
2021/09/24 12:04:00;;;;;;;6.90;1.80;;;20.20;69.60;;;;;;4896276;29;20181;-67
2021/09/24 12:06:32;;;;;;;4.03;1.70;;;20.20;69.50;;;;;;4897305;29;20181;-70
2021/09/24 12:09:08;;;;;;;2.53;1.30;;;20.20;69.60;;;;;;4896870;29;20219;-69
2021/09/24 12:11:46;;;;;;;2.50;1.50;;;20.20;69.90;;;;;;4887095;29;20236;-72
2021/09/24 12:14:15;;;;;;;5.03;1.50;;;20.10;70.20;;;;;;4896998;29;20181;-69
2021/09/24 12:16:44;;;;;;;4.90;1.23;;;20.00;70.30;;;;;;4884163;29;20222;-66
2021/09/24 12:19:31;;;;;;;6.80;1.40;;;19.90;70.40;;;;;;4895393;29;20245;-71
2021/09/24 12:22:02;;;;;;;6.00;1.20;;;19.90;70.30;;;;;;4888087;29;20198;-67
2021/09/24 12:24:33;;;;;;;3.50;1.43;;;19.80;70.50;;;;;;4894408;29;20177;-66
2021/09/24 12:27:06;;;;;;;4.20;1.20;;;19.80;70.20;;;;;;4897843;29;20200;-70
2021/09/24 12:29:35;;;;;;;6.20;1.60;;;19.80;70.60;;;;;;4896734;29;20190;-66
2021/09/24 12:32:13;;;;;;;2.83;1.30;;;19.70;70.90;;;;;;4896564;29;20189;-66
2021/09/24 12:34:48;;;;;;;2.00;1.40;;;19.70;71.10;;;;;;4896628;29;20267;-66
2021/09/24 12:37:31;;;;;;;3.47;1.27;;;19.70;71.60;;;;;;4893971;29;20232;-65
2021/09/24 12:40:01;;;;;;;4.37;1.50;;;19.70;70.70;;;;;;4895053;29;20229;-73
2021/09/24 12:42:45;;;;;;;5.00;1.73;;;19.70;71.70;;;;;;4897271;29;20200;-74
2021/09/24 12:45:25;;;;;;;2.83;1.30;;;19.50;71.90;;;;;;4897338;29;20304;-76
2021/09/24 12:47:53;;;;;;;5.40;1.60;;;19.50;72.90;;;;;;4895627;29;20184;-75
2021/09/24 12:50:21;;;;;;;6.43;1.40;;;19.30;73.30;;;;;;4895212;29;20177;-77
2021/09/24 12:52:49;;;;;;;5.70;1.50;;;19.20;73.40;;;;;;4897334;29;20665;-76
2021/09/24 12:55:16;;;;;;;5.53;1.40;;;19.30;72.60;;;;;;4895580;29;20199;-77
2021/09/24 12:57:44;;;;;;;3.03;1.23;;;19.30;72.90;;;;;;4897113;29;20629;-76
2021/09/24 13:00:13;;;;;;;2.20;1.50;;;19.30;72.40;;;;;;4896752;29;20287;-75
2021/09/24 13:02:41;;;;;;;3.00;1.40;;;19.30;72.90;;;;;;4896873;29;20178;-72
2021/09/24 13:05:10;;;;;;;4.43;1.60;;;19.20;73.10;;;;;;4896546;29;20610;-76
2021/09/24 13:07:37;;;;;;;5.13;1.20;;;19.10;73.20;;;;;;4897299;29;20196;-76
2021/09/24 13:10:14;;;;;;;3.30;1.40;;;19.10;72.90;;;;;;4896411;29;20201;-77
2021/09/24 13:12:43;;;;;;;4.60;1.80;;;19.10;73.10;;;;;;4897164;29;20220;-77
2021/09/24 13:15:14;;;;;;;3.40;1.30;;;19.10;73.10;;;;;;4896999;29;20189;-66
2021/09/24 13:17:41;;;;;;;1.80;0.93;;;19.10;72.80;;;;;;4896439;29;20188;-72